sensor_id;sensor_type;location;lat;lon;timestamp;temperature;humidity
16995;DHT22;8614;48.522;9.206;2023-03-31T02:02:10;10.70;99.90
16995;DHT22;8614;48.522;9.206;2023-03-31T02:04:41;10.70;99.90
16995;DHT22;8614;48.522;9.206;2023-03-31T02:07:12;10.70;99.90
16995;DHT22;8614;48.522;9.206;2023-03-31T02:09:44;10.70;99.90
16995;DHT22;8614;48.522;9.206;2023-03-31T02:12:13;10.70;99.90
16995;DHT22;8614;48.522;9.206;2023-03-31T02:14:44;10.70;99.90
16995;DHT22;8614;48.522;9.206;2023-03-31T02:17:16;10.80;99.90
16995;DHT22;8614;48.522;9.206;2023-03-31T02:19:47;10.80;99.90
16995;DHT22;8614;48.522;9.206;2023-03-31T02:22:16;10.80;99.90
16995;DHT22;8614;48.522;9.206;2023-03-31T02:24:46;10.80;99.90
16995;DHT22;8614;48.522;9.206;2023-03-31T02:27:19;10.80;99.90
16995;DHT22;8614;48.522;9.206;2023-03-31T02:29:47;10.80;99.90
16995;DHT22;8614;48.522;9.206;2023-03-31T02:32:20;10.70;99.90
16995;DHT22;8614;48.522;9.206;2023-03-31T02:34:48;10.70;99.90
16995;DHT22;8614;48.522;9.206;2023-03-31T02:37:15;10.60;99.90
16995;DHT22;8614;48.522;9.206;2023-03-31T02:39:45;10.60;99.90
16995;DHT22;8614;48.522;9.206;2023-03-31T02:42:13;10.50;99.90
16995;DHT22;8614;48.522;9.206;2023-03-31T02:44:41;10.50;99.90
16995;DHT22;8614;48.522;9.206;2023-03-31T02:47:11;10.40;99.90
16995;DHT22;8614;48.522;9.206;2023-03-31T02:49:41;10.40;99.90
16995;DHT22;8614;48.522;9.206;2023-03-31T02:55:20;10.30;99.90
16995;DHT22;8614;48.522;9.206;2023-03-31T02:58:24;10.30;99.90
16995;DHT22;8614;48.522;9.206;2023-03-31T03:01:04;10.20;99.90
16995;DHT22;8614;48.522;9.206;2023-03-31T03:03:40;10.20;99.90
16995;DHT22;8614;48.522;9.206;2023-03-31T03:06:17;10.20;99.90
16995;DHT22;8614;48.522;9.206;2023-03-31T03:09:00;10.10;99.90
16995;DHT22;8614;48.522;9.206;2023-03-31T03:11:36;10.10;99.90
16995;DHT22;8614;48.522;9.206;2023-03-31T03:14:10;10.10;99.90
16995;DHT22;8614;48.522;9.206;2023-03-31T03:16:41;10.00;99.90
16995;DHT22;8614;48.522;9.206;2023-03-31T03:19:09;10.00;99.90
16995;DHT22;8614;48.522;9.206;2023-03-31T03:21:44;9.90;99.90
16995;DHT22;8614;48.522;9.206;2023-03-31T03:24:12;9.90;99.90
16995;DHT22;8614;48.522;9.206;2023-03-31T03:26:39;9.80;99.90
16995;DHT22;8614;48.522;9.206;2023-03-31T03:29:06;9.80;99.90
16995;DHT22;8614;48.522;9.206;2023-03-31T03:31:33;9.70;99.90
16995;DHT22;8614;48.522;9.206;2023-03-31T03:34:00;9.70;99.90
16995;DHT22;8614;48.522;9.206;2023-03-31T03:36:27;9.70;99.90
16995;DHT22;8614;48.522;9.206;2023-03-31T03:38:55;9.60;99.90
16995;DHT22;8614;48.522;9.206;2023-03-31T03:41:22;9.60;99.90
16995;DHT22;8614;48.522;9.206;2023-03-31T03:43:49;9.50;99.90
16995;DHT22;8614;48.522;9.206;2023-03-31T03:46:16;9.50;99.90
16995;DHT22;8614;48.522;9.206;2023-03-31T03:48:43;9.50;99.90
16995;DHT22;8614;48.522;9.206;2023-03-31T03:51:09;9.40;99.90
16995;DHT22;8614;48.522;9.206;2023-03-31T03:53:36;9.40;99.90
16995;DHT22;8614;48.522;9.206;2023-03-31T03:56:05;9.30;99.90
16995;DHT22;8614;48.522;9.206;2023-03-31T03:58:31;9.20;99.90
16995;DHT22;8614;48.522;9.206;2023-03-31T04:00:58;9.20;99.90
16995;DHT22;8614;48.522;9.206;2023-03-31T04:03:25;9.10;99.90
16995;DHT22;8614;48.522;9.206;2023-03-31T04:05:52;9.10;99.90
16995;DHT22;8614;48.522;9.206;2023-03-31T04:08:19;9.00;99.90
16995;DHT22;8614;48.522;9.206;2023-03-31T04:10:47;9.00;99.90
16995;DHT22;8614;48.522;9.206;2023-03-31T04:13:16;9.00;99.90
16995;DHT22;8614;48.522;9.206;2023-03-31T04:15:43;9.00;99.90
16995;DHT22;8614;48.522;9.206;2023-03-31T04:18:10;9.10;99.90
16995;DHT22;8614;48.522;9.206;2023-03-31T04:20:43;9.20;99.90
16995;DHT22;8614;48.522;9.206;2023-03-31T04:23:10;9.30;99.90
16995;DHT22;8614;48.522;9.206;2023-03-31T04:25:39;9.40;99.90
16995;DHT22;8614;48.522;9.206;2023-03-31T04:28:10;9.40;99.90
16995;DHT22;8614;48.522;9.206;2023-03-31T04:30:40;9.50;99.90
16995;DHT22;8614;48.522;9.206;2023-03-31T04:33:08;9.50;99.90
16995;DHT22;8614;48.522;9.206;2023-03-31T04:35:34;9.60;99.90
16995;DHT22;8614;48.522;9.206;2023-03-31T04:38:14;9.60;99.90
16995;DHT22;8614;48.522;9.206;2023-03-31T04:40:44;9.70;99.90
16995;DHT22;8614;48.522;9.206;2023-03-31T04:43:10;9.70;99.90
16995;DHT22;8614;48.522;9.206;2023-03-31T04:45:37;9.80;99.90
16995;DHT22;8614;48.522;9.206;2023-03-31T04:48:06;9.80;99.90
16995;DHT22;8614;48.522;9.206;2023-03-31T04:50:33;9.80;99.90
16995;DHT22;8614;48.522;9.206;2023-03-31T04:53:00;9.90;99.90
16995;DHT22;8614;48.522;9.206;2023-03-31T04:55:27;9.90;99.90
16995;DHT22;8614;48.522;9.206;2023-03-31T04:57:54;10.00;99.90
16995;DHT22;8614;48.522;9.206;2023-03-31T05:02:48;10.00;99.90
16995;DHT22;8614;48.522;9.206;2023-03-31T05:05:17;10.10;99.90
16995;DHT22;8614;48.522;9.206;2023-03-31T05:07:44;10.10;99.90
16995;DHT22;8614;48.522;9.206;2023-03-31T05:10:11;10.10;99.90
16995;DHT22;8614;48.522;9.206;2023-03-31T05:12:38;10.10;99.90
16995;DHT22;8614;48.522;9.206;2023-03-31T05:15:06;10.10;99.90
16995;DHT22;8614;48.522;9.206;2023-03-31T05:17:34;10.10;99.90
16995;DHT22;8614;48.522;9.206;2023-03-31T05:20:01;10.10;99.90
16995;DHT22;8614;48.522;9.206;2023-03-31T05:22:33;10.10;99.90
16995;DHT22;8614;48.522;9.206;2023-03-31T05:25:00;10.10;99.90
16995;DHT22;8614;48.522;9.206;2023-03-31T05:27:27;10.10;99.90
16995;DHT22;8614;48.522;9.206;2023-03-31T05:29:54;10.20;99.90
16995;DHT22;8614;48.522;9.206;2023-03-31T05:32:20;10.10;99.90
16995;DHT22;8614;48.522;9.206;2023-03-31T05:34:47;10.10;99.90
16995;DHT22;8614;48.522;9.206;2023-03-31T05:37:14;10.20;99.90
16995;DHT22;8614;48.522;9.206;2023-03-31T05:39:42;10.10;99.90
16995;DHT22;8614;48.522;9.206;2023-03-31T05:42:09;10.10;99.90
16995;DHT22;8614;48.522;9.206;2023-03-31T05:44:35;10.10;99.90
16995;DHT22;8614;48.522;9.206;2023-03-31T05:47:03;10.10;99.90
16995;DHT22;8614;48.522;9.206;2023-03-31T05:49:30;10.10;99.90
16995;DHT22;8614;48.522;9.206;2023-03-31T05:51:57;10.00;99.90
16995;DHT22;8614;48.522;9.206;2023-03-31T05:54:24;10.00;99.90
16995;DHT22;8614;48.522;9.206;2023-03-31T05:56:53;10.00;99.90
16995;DHT22;8614;48.522;9.206;2023-03-31T05:59:20;10.00;99.90
16995;DHT22;8614;48.522;9.206;2023-03-31T06:01:47;10.00;99.90
16995;DHT22;8614;48.522;9.206;2023-03-31T06:04:13;10.00;99.90
16995;DHT22;8614;48.522;9.206;2023-03-31T06:06:40;10.00;99.90
16995;DHT22;8614;48.522;9.206;2023-03-31T06:09:07;10.00;99.90
16995;DHT22;8614;48.522;9.206;2023-03-31T06:11:36;10.00;99.90
16995;DHT22;8614;48.522;9.206;2023-03-31T06:14:05;10.00;99.90
16995;DHT22;8614;48.522;9.206;2023-03-31T06:16:31;10.00;99.90
16995;DHT22;8614;48.522;9.206;2023-03-31T06:18:58;10.00;99.90
16995;DHT22;8614;48.522;9.206;2023-03-31T06:21:25;10.00;99.90
16995;DHT22;8614;48.522;9.206;2023-03-31T06:23:52;10.00;99.90
16995;DHT22;8614;48.522;9.206;2023-03-31T06:26:20;10.00;99.90
16995;DHT22;8614;48.522;9.206;2023-03-31T06:28:48;10.10;99.90
16995;DHT22;8614;48.522;9.206;2023-03-31T06:31:18;10.10;99.90
16995;DHT22;8614;48.522;9.206;2023-03-31T06:33:45;10.20;99.90
16995;DHT22;8614;48.522;9.206;2023-03-31T06:36:13;10.10;99.90
16995;DHT22;8614;48.522;9.206;2023-03-31T06:38:41;10.20;99.90
16995;DHT22;8614;48.522;9.206;2023-03-31T06:41:09;10.20;99.90
16995;DHT22;8614;48.522;9.206;2023-03-31T06:43:37;10.20;99.90
16995;DHT22;8614;48.522;9.206;2023-03-31T06:46:04;10.20;99.90
16995;DHT22;8614;48.522;9.206;2023-03-31T06:48:33;10.20;99.90
16995;DHT22;8614;48.522;9.206;2023-03-31T06:51:01;10.20;99.90
16995;DHT22;8614;48.522;9.206;2023-03-31T06:53:29;10.20;99.90
16995;DHT22;8614;48.522;9.206;2023-03-31T06:55:56;10.10;99.90
16995;DHT22;8614;48.522;9.206;2023-03-31T06:58:23;10.00;99.90
16995;DHT22;8614;48.522;9.206;2023-03-31T07:00:50;9.80;99.90
16995;DHT22;8614;48.522;9.206;2023-03-31T07:03:17;9.80;99.90
16995;DHT22;8614;48.522;9.206;2023-03-31T07:05:48;9.80;99.90
16995;DHT22;8614;48.522;9.206;2023-03-31T07:08:16;9.80;99.90
16995;DHT22;8614;48.522;9.206;2023-03-31T07:10:43;9.80;99.90
16995;DHT22;8614;48.522;9.206;2023-03-31T07:13:13;9.80;99.90
16995;DHT22;8614;48.522;9.206;2023-03-31T07:15:40;9.90;99.90
16995;DHT22;8614;48.522;9.206;2023-03-31T07:18:07;9.90;99.90
16995;DHT22;8614;48.522;9.206;2023-03-31T07:20:34;9.90;99.90
16995;DHT22;8614;48.522;9.206;2023-03-31T07:23:04;10.00;99.90
16995;DHT22;8614;48.522;9.206;2023-03-31T07:25:31;10.00;99.90
16995;DHT22;8614;48.522;9.206;2023-03-31T07:27:58;10.00;99.90
16995;DHT22;8614;48.522;9.206;2023-03-31T07:30:25;10.10;99.90
16995;DHT22;8614;48.522;9.206;2023-03-31T07:32:52;10.20;99.90
16995;DHT22;8614;48.522;9.206;2023-03-31T07:35:19;10.30;99.90
16995;DHT22;8614;48.522;9.206;2023-03-31T07:37:48;10.40;99.90
16995;DHT22;8614;48.522;9.206;2023-03-31T07:40:19;10.60;99.90
16995;DHT22;8614;48.522;9.206;2023-03-31T07:42:47;10.80;99.90
16995;DHT22;8614;48.522;9.206;2023-03-31T07:45:15;11.00;99.90
16995;DHT22;8614;48.522;9.206;2023-03-31T07:47:42;11.30;99.90
16995;DHT22;8614;48.522;9.206;2023-03-31T07:50:11;11.50;99.90
16995;DHT22;8614;48.522;9.206;2023-03-31T07:52:38;11.60;99.90
16995;DHT22;8614;48.522;9.206;2023-03-31T07:55:05;11.60;99.90
16995;DHT22;8614;48.522;9.206;2023-03-31T07:57:34;11.70;99.90
16995;DHT22;8614;48.522;9.206;2023-03-31T08:00:02;11.80;99.90
16995;DHT22;8614;48.522;9.206;2023-03-31T08:02:37;11.90;99.90
16995;DHT22;8614;48.522;9.206;2023-03-31T08:05:06;12.20;99.90
16995;DHT22;8614;48.522;9.206;2023-03-31T08:07:33;12.40;99.90
16995;DHT22;8614;48.522;9.206;2023-03-31T08:10:00;12.40;99.90
16995;DHT22;8614;48.522;9.206;2023-03-31T08:12:28;12.90;99.90
16995;DHT22;8614;48.522;9.206;2023-03-31T08:14:56;13.70;99.90
16995;DHT22;8614;48.522;9.206;2023-03-31T08:17:23;14.20;99.90
16995;DHT22;8614;48.522;9.206;2023-03-31T08:19:49;14.70;99.90
16995;DHT22;8614;48.522;9.206;2023-03-31T08:22:17;15.20;99.90
16995;DHT22;8614;48.522;9.206;2023-03-31T08:24:43;15.60;99.90
16995;DHT22;8614;48.522;9.206;2023-03-31T08:27:10;15.90;99.90
16995;DHT22;8614;48.522;9.206;2023-03-31T08:29:37;16.30;99.90
16995;DHT22;8614;48.522;9.206;2023-03-31T08:32:05;16.50;99.90
16995;DHT22;8614;48.522;9.206;2023-03-31T08:34:32;16.80;99.90
16995;DHT22;8614;48.522;9.206;2023-03-31T08:36:59;17.00;99.90
16995;DHT22;8614;48.522;9.206;2023-03-31T08:39:26;17.20;99.90
16995;DHT22;8614;48.522;9.206;2023-03-31T08:41:57;17.30;99.90
16995;DHT22;8614;48.522;9.206;2023-03-31T08:44:30;17.40;99.90
16995;DHT22;8614;48.522;9.206;2023-03-31T08:46:59;17.50;99.90
16995;DHT22;8614;48.522;9.206;2023-03-31T08:49:30;17.80;99.90
16995;DHT22;8614;48.522;9.206;2023-03-31T08:52:01;18.00;99.90
16995;DHT22;8614;48.522;9.206;2023-03-31T08:54:33;18.30;99.90
16995;DHT22;8614;48.522;9.206;2023-03-31T08:57:05;18.40;99.90
16995;DHT22;8614;48.522;9.206;2023-03-31T08:59:37;18.50;99.90
16995;DHT22;8614;48.522;9.206;2023-03-31T09:02:15;18.60;99.90
16995;DHT22;8614;48.522;9.206;2023-03-31T09:04:54;18.70;99.90
16995;DHT22;8614;48.522;9.206;2023-03-31T09:07:31;18.90;99.90
16995;DHT22;8614;48.522;9.206;2023-03-31T09:10:09;19.00;99.90
16995;DHT22;8614;48.522;9.206;2023-03-31T09:12:47;18.80;99.90
16995;DHT22;8614;48.522;9.206;2023-03-31T09:15:23;18.90;99.90
16995;DHT22;8614;48.522;9.206;2023-03-31T09:17:52;18.90;99.90
16995;DHT22;8614;48.522;9.206;2023-03-31T09:20:26;18.70;99.90
16995;DHT22;8614;48.522;9.206;2023-03-31T09:23:00;18.80;99.90
16995;DHT22;8614;48.522;9.206;2023-03-31T09:25:31;18.60;99.90
16995;DHT22;8614;48.522;9.206;2023-03-31T09:28:01;18.40;99.90
16995;DHT22;8614;48.522;9.206;2023-03-31T09:30:30;18.50;99.90
16995;DHT22;8614;48.522;9.206;2023-03-31T09:33:05;18.90;99.90
16995;DHT22;8614;48.522;9.206;2023-03-31T09:35:37;18.60;99.90
16995;DHT22;8614;48.522;9.206;2023-03-31T09:38:04;18.60;99.90
16995;DHT22;8614;48.522;9.206;2023-03-31T09:40:31;18.80;99.90
16995;DHT22;8614;48.522;9.206;2023-03-31T09:43:00;18.60;99.90
16995;DHT22;8614;48.522;9.206;2023-03-31T09:45:28;18.60;99.90
16995;DHT22;8614;48.522;9.206;2023-03-31T09:47:57;18.70;99.90
16995;DHT22;8614;48.522;9.206;2023-03-31T09:50:25;18.80;99.90
16995;DHT22;8614;48.522;9.206;2023-03-31T09:52:55;18.90;99.90
16995;DHT22;8614;48.522;9.206;2023-03-31T09:55:25;18.80;99.90
16995;DHT22;8614;48.522;9.206;2023-03-31T09:57:53;18.80;99.90
16995;DHT22;8614;48.522;9.206;2023-03-31T10:00:21;18.60;99.90
16995;DHT22;8614;48.522;9.206;2023-03-31T10:02:49;18.40;99.90
16995;DHT22;8614;48.522;9.206;2023-03-31T10:05:31;18.10;99.90
16995;DHT22;8614;48.522;9.206;2023-03-31T10:08:18;18.00;99.90
16995;DHT22;8614;48.522;9.206;2023-03-31T10:10:48;18.20;99.90
16995;DHT22;8614;48.522;9.206;2023-03-31T10:13:17;18.20;99.90
16995;DHT22;8614;48.522;9.206;2023-03-31T10:15:45;18.40;99.90
16995;DHT22;8614;48.522;9.206;2023-03-31T10:18:13;18.40;99.90
16995;DHT22;8614;48.522;9.206;2023-03-31T10:20:44;18.50;99.90
16995;DHT22;8614;48.522;9.206;2023-03-31T10:23:17;18.30;99.90
16995;DHT22;8614;48.522;9.206;2023-03-31T10:25:48;18.10;99.90
16995;DHT22;8614;48.522;9.206;2023-03-31T10:28:17;17.90;99.90
16995;DHT22;8614;48.522;9.206;2023-03-31T10:30:47;17.70;99.90
16995;DHT22;8614;48.522;9.206;2023-03-31T10:33:16;17.80;99.90
16995;DHT22;8614;48.522;9.206;2023-03-31T10:35:44;17.80;99.90
16995;DHT22;8614;48.522;9.206;2023-03-31T10:38:16;17.70;99.90
16995;DHT22;8614;48.522;9.206;2023-03-31T10:40:50;17.80;99.90
16995;DHT22;8614;48.522;9.206;2023-03-31T10:43:18;17.80;99.90
16995;DHT22;8614;48.522;9.206;2023-03-31T10:45:47;17.70;99.90
16995;DHT22;8614;48.522;9.206;2023-03-31T10:48:20;17.60;99.90
16995;DHT22;8614;48.522;9.206;2023-03-31T10:50:49;17.60;99.90
16995;DHT22;8614;48.522;9.206;2023-03-31T10:53:18;17.80;99.90
16995;DHT22;8614;48.522;9.206;2023-03-31T10:55:58;17.80;99.90
16995;DHT22;8614;48.522;9.206;2023-03-31T10:58:37;18.00;99.90
16995;DHT22;8614;48.522;9.206;2023-03-31T11:01:13;18.00;99.90
16995;DHT22;8614;48.522;9.206;2023-03-31T11:04:08;18.10;99.90
16995;DHT22;8614;48.522;9.206;2023-03-31T11:06:50;18.10;99.90
16995;DHT22;8614;48.522;9.206;2023-03-31T11:09:36;18.10;99.90
16995;DHT22;8614;48.522;9.206;2023-03-31T11:12:11;18.20;99.90
16995;DHT22;8614;48.522;9.206;2023-03-31T11:14:52;18.20;99.90
16995;DHT22;8614;48.522;9.206;2023-03-31T11:17:27;18.10;99.90
16995;DHT22;8614;48.522;9.206;2023-03-31T11:20:04;18.00;99.90
16995;DHT22;8614;48.522;9.206;2023-03-31T11:22:42;17.60;99.90
16995;DHT22;8614;48.522;9.206;2023-03-31T11:25:17;17.00;99.90
16995;DHT22;8614;48.522;9.206;2023-03-31T11:27:58;16.20;99.90
16995;DHT22;8614;48.522;9.206;2023-03-31T11:30:31;14.80;99.90
16995;DHT22;8614;48.522;9.206;2023-03-31T11:33:22;13.50;99.90
16995;DHT22;8614;48.522;9.206;2023-03-31T11:36:01;12.50;99.90
16995;DHT22;8614;48.522;9.206;2023-03-31T11:38:41;11.70;99.90
16995;DHT22;8614;48.522;9.206;2023-03-31T11:41:17;11.30;99.90
16995;DHT22;8614;48.522;9.206;2023-03-31T11:43:46;11.10;99.90
16995;DHT22;8614;48.522;9.206;2023-03-31T11:46:16;10.90;99.90
16995;DHT22;8614;48.522;9.206;2023-03-31T11:48:46;10.70;99.90
16995;DHT22;8614;48.522;9.206;2023-03-31T11:51:19;10.50;99.90
16995;DHT22;8614;48.522;9.206;2023-03-31T11:53:47;10.40;99.90
16995;DHT22;8614;48.522;9.206;2023-03-31T11:56:19;10.30;99.90
16995;DHT22;8614;48.522;9.206;2023-03-31T11:58:50;10.30;99.90
16995;DHT22;8614;48.522;9.206;2023-03-31T12:01:22;11.00;99.90
16995;DHT22;8614;48.522;9.206;2023-03-31T12:03:56;11.20;99.90
16995;DHT22;8614;48.522;9.206;2023-03-31T12:06:28;11.70;99.90
16995;DHT22;8614;48.522;9.206;2023-03-31T12:09:04;11.90;99.90
16995;DHT22;8614;48.522;9.206;2023-03-31T12:11:39;12.10;99.90
16995;DHT22;8614;48.522;9.206;2023-03-31T12:14:24;12.20;99.90
16995;DHT22;8614;48.522;9.206;2023-03-31T12:16:55;12.40;99.90
16995;DHT22;8614;48.522;9.206;2023-03-31T12:19:27;12.50;99.90
16995;DHT22;8614;48.522;9.206;2023-03-31T12:21:59;12.60;99.90
16995;DHT22;8614;48.522;9.206;2023-03-31T12:24:30;12.70;99.90
16995;DHT22;8614;48.522;9.206;2023-03-31T12:27:05;12.60;99.90
16995;DHT22;8614;48.522;9.206;2023-03-31T12:29:35;12.60;99.90
16995;DHT22;8614;48.522;9.206;2023-03-31T12:32:09;12.80;99.90
16995;DHT22;8614;48.522;9.206;2023-03-31T12:34:43;12.90;99.90
16995;DHT22;8614;48.522;9.206;2023-03-31T12:40:29;13.10;99.90
16995;DHT22;8614;48.522;9.206;2023-03-31T12:43:18;13.30;99.90
16995;DHT22;8614;48.522;9.206;2023-03-31T12:45:54;13.40;99.90
16995;DHT22;8614;48.522;9.206;2023-03-31T12:48:47;13.50;99.90
16995;DHT22;8614;48.522;9.206;2023-03-31T12:51:28;13.40;99.90
16995;DHT22;8614;48.522;9.206;2023-03-31T12:54:09;13.40;99.90
16995;DHT22;8614;48.522;9.206;2023-03-31T12:57:11;13.30;99.90
16995;DHT22;8614;48.522;9.206;2023-03-31T12:59:41;13.30;99.90
16995;DHT22;8614;48.522;9.206;2023-03-31T13:02:23;13.40;99.90
16995;DHT22;8614;48.522;9.206;2023-03-31T13:04:50;13.50;99.90
16995;DHT22;8614;48.522;9.206;2023-03-31T13:07:39;13.70;99.90
16995;DHT22;8614;48.522;9.206;2023-03-31T13:10:25;13.80;99.90
16995;DHT22;8614;48.522;9.206;2023-03-31T13:13:11;13.90;99.90
16995;DHT22;8614;48.522;9.206;2023-03-31T13:15:49;14.00;99.90
16995;DHT22;8614;48.522;9.206;2023-03-31T13:18:19;14.20;99.90
16995;DHT22;8614;48.522;9.206;2023-03-31T13:20:57;14.30;99.90
16995;DHT22;8614;48.522;9.206;2023-03-31T13:23:25;14.50;99.90
16995;DHT22;8614;48.522;9.206;2023-03-31T13:25:54;14.60;99.90
16995;DHT22;8614;48.522;9.206;2023-03-31T13:28:38;14.80;99.90
16995;DHT22;8614;48.522;9.206;2023-03-31T13:31:09;15.00;99.90
16995;DHT22;8614;48.522;9.206;2023-03-31T13:33:40;15.00;99.90
16995;DHT22;8614;48.522;9.206;2023-03-31T13:36:42;15.00;99.90
16995;DHT22;8614;48.522;9.206;2023-03-31T13:42:45;15.40;99.90
16995;DHT22;8614;48.522;9.206;2023-03-31T13:45:24;15.30;99.90
16995;DHT22;8614;48.522;9.206;2023-03-31T13:48:33;15.00;99.90
16995;DHT22;8614;48.522;9.206;2023-03-31T13:51:16;14.70;99.90
16995;DHT22;8614;48.522;9.206;2023-03-31T13:54:15;14.30;99.90
16995;DHT22;8614;48.522;9.206;2023-03-31T13:57:11;13.90;99.90
16995;DHT22;8614;48.522;9.206;2023-03-31T14:00:05;13.20;99.90
16995;DHT22;8614;48.522;9.206;2023-03-31T14:05:38;12.20;99.90
16995;DHT22;8614;48.522;9.206;2023-03-31T14:08:10;11.70;99.90
16995;DHT22;8614;48.522;9.206;2023-03-31T14:10:40;11.70;99.90
16995;DHT22;8614;48.522;9.206;2023-03-31T14:13:10;11.70;99.90
16995;DHT22;8614;48.522;9.206;2023-03-31T14:15:39;12.20;99.90
16995;DHT22;8614;48.522;9.206;2023-03-31T14:18:12;12.40;99.90
16995;DHT22;8614;48.522;9.206;2023-03-31T14:20:48;12.60;99.90
16995;DHT22;8614;48.522;9.206;2023-03-31T14:23:30;12.50;99.90
16995;DHT22;8614;48.522;9.206;2023-03-31T14:26:02;12.30;99.90
16995;DHT22;8614;48.522;9.206;2023-03-31T14:28:43;12.10;99.90
16995;DHT22;8614;48.522;9.206;2023-03-31T14:31:16;12.10;99.90
16995;DHT22;8614;48.522;9.206;2023-03-31T14:33:52;12.00;99.90
16995;DHT22;8614;48.522;9.206;2023-03-31T14:36:30;12.10;99.90
16995;DHT22;8614;48.522;9.206;2023-03-31T14:39:04;12.30;99.90
16995;DHT22;8614;48.522;9.206;2023-03-31T14:41:32;12.60;99.90
16995;DHT22;8614;48.522;9.206;2023-03-31T14:44:04;12.80;99.90
16995;DHT22;8614;48.522;9.206;2023-03-31T14:46:35;12.80;99.90
16995;DHT22;8614;48.522;9.206;2023-03-31T14:49:11;12.80;99.90
16995;DHT22;8614;48.522;9.206;2023-03-31T14:51:43;12.70;99.90
16995;DHT22;8614;48.522;9.206;2023-03-31T14:54:15;12.50;99.90
16995;DHT22;8614;48.522;9.206;2023-03-31T14:56:43;12.40;99.90
16995;DHT22;8614;48.522;9.206;2023-03-31T14:59:17;12.40;99.90
16995;DHT22;8614;48.522;9.206;2023-03-31T15:01:46;12.50;99.90
16995;DHT22;8614;48.522;9.206;2023-03-31T15:04:16;12.40;99.90
16995;DHT22;8614;48.522;9.206;2023-03-31T15:06:46;12.40;99.90
16995;DHT22;8614;48.522;9.206;2023-03-31T15:09:19;12.30;99.90
16995;DHT22;8614;48.522;9.206;2023-03-31T15:11:47;12.20;99.90
16995;DHT22;8614;48.522;9.206;2023-03-31T15:14:19;12.20;99.90
16995;DHT22;8614;48.522;9.206;2023-03-31T15:16:46;12.30;99.90
16995;DHT22;8614;48.522;9.206;2023-03-31T15:19:17;12.20;99.90
16995;DHT22;8614;48.522;9.206;2023-03-31T15:21:47;12.20;99.90
16995;DHT22;8614;48.522;9.206;2023-03-31T15:24:19;12.10;99.90
16995;DHT22;8614;48.522;9.206;2023-03-31T15:26:49;11.90;99.90
16995;DHT22;8614;48.522;9.206;2023-03-31T15:29:20;11.80;99.90
16995;DHT22;8614;48.522;9.206;2023-03-31T15:31:47;11.80;99.90
16995;DHT22;8614;48.522;9.206;2023-03-31T15:34:19;11.80;99.90
16995;DHT22;8614;48.522;9.206;2023-03-31T15:36:48;11.80;99.90
16995;DHT22;8614;48.522;9.206;2023-03-31T15:39:15;11.80;99.90
16995;DHT22;8614;48.522;9.206;2023-03-31T15:41:43;11.80;99.90
16995;DHT22;8614;48.522;9.206;2023-03-31T15:47:18;11.90;99.90
16995;DHT22;8614;48.522;9.206;2023-03-31T15:49:54;12.00;99.90
16995;DHT22;8614;48.522;9.206;2023-03-31T15:52:30;12.00;99.90
16995;DHT22;8614;48.522;9.206;2023-03-31T15:54:58;12.10;99.90
16995;DHT22;8614;48.522;9.206;2023-03-31T15:57:32;12.10;99.90
16995;DHT22;8614;48.522;9.206;2023-03-31T15:59:59;12.10;99.90
16995;DHT22;8614;48.522;9.206;2023-03-31T16:02:28;12.10;99.90
16995;DHT22;8614;48.522;9.206;2023-03-31T16:05:01;12.00;99.90
16995;DHT22;8614;48.522;9.206;2023-03-31T16:07:31;12.00;99.90
16995;DHT22;8614;48.522;9.206;2023-03-31T16:10:02;11.90;99.90
16995;DHT22;8614;48.522;9.206;2023-03-31T16:12:31;11.90;99.90
16995;DHT22;8614;48.522;9.206;2023-03-31T16:15:02;12.00;99.90
16995;DHT22;8614;48.522;9.206;2023-03-31T16:17:33;11.90;99.90
16995;DHT22;8614;48.522;9.206;2023-03-31T16:20:05;11.90;99.90
16995;DHT22;8614;48.522;9.206;2023-03-31T16:22:38;11.90;99.90
16995;DHT22;8614;48.522;9.206;2023-03-31T16:25:11;11.90;99.90
16995;DHT22;8614;48.522;9.206;2023-03-31T16:27:43;11.90;99.90
16995;DHT22;8614;48.522;9.206;2023-03-31T16:30:14;11.90;99.90
16995;DHT22;8614;48.522;9.206;2023-03-31T16:33:02;11.90;99.90
16995;DHT22;8614;48.522;9.206;2023-03-31T16:35:30;11.80;99.90
16995;DHT22;8614;48.522;9.206;2023-03-31T16:37:59;11.70;99.90
16995;DHT22;8614;48.522;9.206;2023-03-31T16:40:28;11.70;99.90
16995;DHT22;8614;48.522;9.206;2023-03-31T16:43:11;11.60;99.90
16995;DHT22;8614;48.522;9.206;2023-03-31T16:45:38;11.50;99.90
16995;DHT22;8614;48.522;9.206;2023-03-31T16:48:05;11.30;99.90
16995;DHT22;8614;48.522;9.206;2023-03-31T16:50:32;11.30;99.90
16995;DHT22;8614;48.522;9.206;2023-03-31T16:53:01;11.10;99.90
16995;DHT22;8614;48.522;9.206;2023-03-31T16:55:28;10.90;99.90
16995;DHT22;8614;48.522;9.206;2023-03-31T16:57:56;10.70;99.90
16995;DHT22;8614;48.522;9.206;2023-03-31T17:00:24;10.50;99.90
16995;DHT22;8614;48.522;9.206;2023-03-31T17:02:51;10.40;99.90
16995;DHT22;8614;48.522;9.206;2023-03-31T17:05:18;10.30;99.90
16995;DHT22;8614;48.522;9.206;2023-03-31T17:07:45;10.20;99.90
16995;DHT22;8614;48.522;9.206;2023-03-31T17:10:15;10.20;99.90
16995;DHT22;8614;48.522;9.206;2023-03-31T17:12:42;10.10;99.90
16995;DHT22;8614;48.522;9.206;2023-03-31T17:15:10;10.00;99.90
16995;DHT22;8614;48.522;9.206;2023-03-31T17:17:37;9.90;99.90
16995;DHT22;8614;48.522;9.206;2023-03-31T17:20:05;9.90;99.90
16995;DHT22;8614;48.522;9.206;2023-03-31T17:22:32;9.80;99.90
16995;DHT22;8614;48.522;9.206;2023-03-31T17:24:59;9.70;99.90
16995;DHT22;8614;48.522;9.206;2023-03-31T17:27:28;9.60;99.90
16995;DHT22;8614;48.522;9.206;2023-03-31T17:29:55;9.50;99.90
16995;DHT22;8614;48.522;9.206;2023-03-31T17:32:22;9.50;99.90
16995;DHT22;8614;48.522;9.206;2023-03-31T17:34:49;9.60;99.90
16995;DHT22;8614;48.522;9.206;2023-03-31T17:37:16;9.60;99.90
16995;DHT22;8614;48.522;9.206;2023-03-31T17:39:44;9.60;99.90
16995;DHT22;8614;48.522;9.206;2023-03-31T17:42:12;9.60;99.90
16995;DHT22;8614;48.522;9.206;2023-03-31T17:44:40;9.60;99.90
16995;DHT22;8614;48.522;9.206;2023-03-31T17:47:07;9.60;99.90
16995;DHT22;8614;48.522;9.206;2023-03-31T17:49:34;9.60;99.90
16995;DHT22;8614;48.522;9.206;2023-03-31T17:52:01;9.60;99.90
16995;DHT22;8614;48.522;9.206;2023-03-31T17:54:27;9.60;99.90
16995;DHT22;8614;48.522;9.206;2023-03-31T17:56:54;9.50;99.90
16995;DHT22;8614;48.522;9.206;2023-03-31T17:59:21;9.50;99.90
16995;DHT22;8614;48.522;9.206;2023-03-31T18:01:49;9.40;99.90
16995;DHT22;8614;48.522;9.206;2023-03-31T18:04:16;9.40;99.90
16995;DHT22;8614;48.522;9.206;2023-03-31T18:06:43;9.40;99.90
16995;DHT22;8614;48.522;9.206;2023-03-31T18:09:12;9.40;99.90
16995;DHT22;8614;48.522;9.206;2023-03-31T18:11:39;9.40;99.90
16995;DHT22;8614;48.522;9.206;2023-03-31T18:14:06;9.40;99.90
16995;DHT22;8614;48.522;9.206;2023-03-31T18:16:33;9.30;99.90
16995;DHT22;8614;48.522;9.206;2023-03-31T18:19:02;9.40;99.90
16995;DHT22;8614;48.522;9.206;2023-03-31T18:21:29;9.30;99.90
16995;DHT22;8614;48.522;9.206;2023-03-31T18:23:56;9.30;99.90
16995;DHT22;8614;48.522;9.206;2023-03-31T18:26:24;9.30;99.90
16995;DHT22;8614;48.522;9.206;2023-03-31T18:28:52;9.30;99.90
16995;DHT22;8614;48.522;9.206;2023-03-31T18:31:18;9.30;99.90
16995;DHT22;8614;48.522;9.206;2023-03-31T18:33:47;9.30;99.90